Time;durP1;ratioP1;P1;durP2;ratioP2;P2;SDS_P1;SDS_P2;PMS_P1;PMS_P2;Temp;Humidity;BMP_temperature;BMP_pressure;BME280_temperature;BME280_humidity;BME280_pressure;Samples;Min_cycle;Max_cycle;Signal;HPM_P1;HPM_P2
2023/10/08 00:00:46;;;;;;;21.13;5.13;;;;;;;;;;5070012;27;98532;-70
2023/10/08 00:03:13;;;;;;;14.55;4.63;;;;;;;;;;5068947;27;99125;-70
2023/10/08 00:05:40;;;;;;;19.02;4.53;;;;;;;;;;5061091;27;99052;-70
2023/10/08 00:08:07;;;;;;;17.98;4.82;;;;;;;;;;5058219;27;99198;-70
2023/10/08 00:10:41;;;;;;;18.48;5.15;;;;;;;;;;5057957;27;99521;-70
2023/10/08 00:13:09;;;;;;;21.38;5.07;;;;;;;;;;5066257;27;100000;-71
2023/10/08 00:15:36;;;;;;;21.13;5.63;;;;;;;;;;5054956;27;99455;-71
2023/10/08 00:18:05;;;;;;;20.75;5.20;;;;;;;;;;5061736;27;98922;-71
2023/10/08 00:20:54;;;;;;;17.88;5.40;;;;;;;;;;5062030;27;98551;-71
2023/10/08 00:23:22;;;;;;;23.25;5.35;;;;;;;;;;5064157;27;99710;-71
2023/10/08 00:25:50;;;;;;;21.52;5.18;;;;;;;;;;5060578;27;99340;-70
2023/10/08 00:28:17;;;;;;;12.57;4.72;;;;;;;;;;5060737;27;100600;-71
2023/10/08 00:30:44;;;;;;;19.35;5.00;;;;;;;;;;5064203;27;98793;-69
2023/10/08 00:33:14;;;;;;;24.45;4.97;;;;;;;;;;5074315;27;98169;-70
2023/10/08 00:35:41;;;;;;;27.38;6.03;;;;;;;;;;5070937;27;99762;-72
2023/10/08 00:38:14;;;;;;;27.95;4.97;;;;;;;;;;5070061;27;98273;-70
2023/10/08 00:40:45;;;;;;;15.18;4.65;;;;;;;;;;5071440;27;98315;-72
2023/10/08 00:43:35;;;;;;;20.38;5.43;;;;;;;;;;5103100;27;98947;-73
2023/10/08 00:46:02;;;;;;;23.65;5.25;;;;;;;;;;5071350;27;98630;-72
2023/10/08 00:48:34;;;;;;;16.52;5.00;;;;;;;;;;5069567;27;100641;-71
2023/10/08 00:54:05;;;;;;;19.60;5.47;;;;;;;;;;5070153;27;98139;-71
2023/10/08 00:56:50;;;;;;;31.65;5.53;;;;;;;;;;5072020;27;98466;-71
2023/10/08 00:59:16;;;;;;;27.05;5.72;;;;;;;;;;5069553;27;98307;-70
2023/10/08 01:01:49;;;;;;;22.58;5.40;;;;;;;;;;5070203;27;99665;-71
2023/10/08 01:04:17;;;;;;;21.73;4.75;;;;;;;;;;5070149;27;98891;-71
2023/10/08 01:06:44;;;;;;;18.45;5.45;;;;;;;;;;5060831;27;98187;-71
2023/10/08 01:09:59;;;;;;;17.15;4.80;;;;;;;;;;5062323;27;98580;-72
2023/10/08 01:12:21;;;;;;;18.10;5.25;;;;;;;;;;5048605;27;99697;-71
2023/10/08 01:14:49;;;;;;;17.75;5.75;;;;;;;;;;5067614;27;98809;-70
2023/10/08 01:17:16;;;;;;;22.98;5.68;;;;;;;;;;5073551;27;98533;-70
2023/10/08 01:19:45;;;;;;;24.55;6.22;;;;;;;;;;5059732;27;99301;-71
2023/10/08 01:22:16;;;;;;;16.75;5.13;;;;;;;;;;5088338;27;100406;-70
2023/10/08 01:24:43;;;;;;;20.67;5.57;;;;;;;;;;5055839;27;98771;-70
2023/10/08 01:27:11;;;;;;;19.38;5.55;;;;;;;;;;5059531;27;99069;-69
2023/10/08 01:29:39;;;;;;;18.52;5.82;;;;;;;;;;5059036;27;99495;-70
2023/10/08 01:32:09;;;;;;;22.65;5.95;;;;;;;;;;5069720;27;98943;-71
2023/10/08 01:34:36;;;;;;;16.58;5.53;;;;;;;;;;5069246;27;98213;-72
2023/10/08 01:37:09;;;;;;;15.23;6.00;;;;;;;;;;5068715;27;98933;-71
2023/10/08 01:39:36;;;;;;;22.23;5.88;;;;;;;;;;5072301;27;100171;-71
2023/10/08 01:42:04;;;;;;;26.88;6.50;;;;;;;;;;5090092;27;98679;-71
2023/10/08 01:44:33;;;;;;;18.27;5.13;;;;;;;;;;5089642;27;98919;-71
2023/10/08 01:47:00;;;;;;;28.90;6.00;;;;;;;;;;5089517;27;98159;-71
2023/10/08 01:49:32;;;;;;;19.13;5.30;;;;;;;;;;5073517;27;99783;-71
2023/10/08 01:51:59;;;;;;;32.93;5.40;;;;;;;;;;5062320;27;98955;-71
2023/10/08 01:54:26;;;;;;;20.27;5.70;;;;;;;;;;5059569;27;98389;-71
2023/10/08 01:56:52;;;;;;;21.70;5.57;;;;;;;;;;5056259;27;99753;-71
2023/10/08 01:59:19;;;;;;;22.50;5.57;;;;;;;;;;5053753;27;100247;-71
2023/10/08 02:01:46;;;;;;;21.70;5.68;;;;;;;;;;5057146;27;99686;-71
2023/10/08 02:04:16;;;;;;;17.48;4.80;;;;;;;;;;5063053;27;98199;-70
2023/10/08 02:06:45;;;;;;;21.42;6.07;;;;;;;;;;5061308;27;98733;-71
2023/10/08 02:09:13;;;;;;;23.75;5.03;;;;;;;;;;5054494;27;99989;-70
2023/10/08 02:11:44;;;;;;;29.42;7.80;;;;;;;;;;5057996;27;98788;-71
2023/10/08 02:14:11;;;;;;;19.73;5.60;;;;;;;;;;5054846;27;99435;-71
2023/10/08 02:16:38;;;;;;;15.85;4.65;;;;;;;;;;5057106;27;99710;-71
2023/10/08 02:19:06;;;;;;;26.27;5.90;;;;;;;;;;5055030;27;99931;-71
2023/10/08 02:21:33;;;;;;;34.97;6.88;;;;;;;;;;5056133;27;98636;-71
2023/10/08 02:23:59;;;;;;;15.63;5.38;;;;;;;;;;5056815;27;99533;-70
2023/10/08 02:26:26;;;;;;;22.17;5.40;;;;;;;;;;5055820;27;98465;-70
2023/10/08 02:28:53;;;;;;;23.75;6.90;;;;;;;;;;5055920;27;98437;-70
2023/10/08 02:31:20;;;;;;;25.10;6.78;;;;;;;;;;5059007;27;99400;-71
2023/10/08 02:33:47;;;;;;;21.27;5.55;;;;;;;;;;5054056;27;99196;-71
2023/10/08 02:36:13;;;;;;;21.38;6.15;;;;;;;;;;5056987;27;99787;-71
2023/10/08 02:38:40;;;;;;;20.50;6.07;;;;;;;;;;5060331;27;98799;-71
2023/10/08 02:41:07;;;;;;;20.98;6.63;;;;;;;;;;5055075;27;99491;-71
2023/10/08 02:43:34;;;;;;;21.40;7.78;;;;;;;;;;5054889;27;98577;-70
2023/10/08 02:46:06;;;;;;;23.20;7.30;;;;;;;;;;5059463;27;100098;-72
2023/10/08 02:48:34;;;;;;;27.85;6.78;;;;;;;;;;5051985;27;100438;-70
2023/10/08 02:51:13;;;;;;;16.17;5.80;;;;;;;;;;5057013;27;99057;-70
2023/10/08 02:53:43;;;;;;;18.50;5.88;;;;;;;;;;5056868;27;98088;-70
2023/10/08 02:56:14;;;;;;;27.42;6.90;;;;;;;;;;5077461;27;99647;-70
2023/10/08 02:58:40;;;;;;;24.63;5.88;;;;;;;;;;5066345;27;101159;-70
2023/10/08 03:01:12;;;;;;;22.35;6.65;;;;;;;;;;5064645;27;98232;-71
2023/10/08 03:03:39;;;;;;;20.70;6.20;;;;;;;;;;5101552;27;98795;-71
2023/10/08 03:06:11;;;;;;;27.38;8.07;;;;;;;;;;5068228;27;98738;-71
2023/10/08 03:08:41;;;;;;;26.83;7.07;;;;;;;;;;5072167;27;98104;-71
2023/10/08 03:11:16;;;;;;;21.55;6.68;;;;;;;;;;5077188;27;101275;-71
2023/10/08 03:13:46;;;;;;;21.45;7.07;;;;;;;;;;5078494;27;98260;-70
2023/10/08 03:16:13;;;;;;;22.30;5.97;;;;;;;;;;5101623;27;100770;-71
2023/10/08 03:18:45;;;;;;;18.15;6.63;;;;;;;;;;5067444;27;98793;-71
2023/10/08 03:21:20;;;;;;;16.20;6.38;;;;;;;;;;5066615;27;98576;-71
2023/10/08 03:23:51;;;;;;;22.63;7.25;;;;;;;;;;5062228;27;100255;-71
2023/10/08 03:26:33;;;;;;;21.17;6.53;;;;;;;;;;5046789;27;99495;-71
2023/10/08 03:29:05;;;;;;;22.48;7.20;;;;;;;;;;5046422;27;98111;-72
2023/10/08 03:31:49;;;;;;;16.17;7.68;;;;;;;;;;5058293;27;98670;-71
2023/10/08 03:34:19;;;;;;;38.55;19.70;;;;;;;;;;5053581;27;99631;-71
2023/10/08 03:36:47;;;;;;;34.60;16.92;;;;;;;;;;5059704;27;99879;-71
2023/10/08 03:39:14;;;;;;;59.65;27.88;;;;;;;;;;5069120;27;99632;-69
2023/10/08 03:41:41;;;;;;;29.27;13.02;;;;;;;;;;5067357;27;98424;-70
2023/10/08 03:44:14;;;;;;;24.05;8.48;;;;;;;;;;5064498;27;98976;-71
2023/10/08 03:46:43;;;;;;;20.20;8.38;;;;;;;;;;5067515;27;100781;-71
2023/10/08 03:51:51;;;;;;;26.48;6.30;;;;;;;;;;5054597;27;98703;-71
2023/10/08 03:54:35;;;;;;;21.50;5.57;;;;;;;;;;5060428;27;100229;-71
2023/10/08 03:57:04;;;;;;;16.63;4.53;;;;;;;;;;5057139;27;99091;-71
2023/10/08 03:59:34;;;;;;;19.65;4.63;;;;;;;;;;5051905;27;100471;-70
2023/10/08 04:02:14;;;;;;;27.73;5.00;;;;;;;;;;5061678;27;100059;-72
2023/10/08 04:04:57;;;;;;;8.15;4.18;;;;;;;;;;5057616;27;98672;-72
2023/10/08 04:10:05;;;;;;;11.93;3.67;;;;;;;;;;5066797;27;120580;-71
2023/10/08 04:12:34;;;;;;;12.90;3.60;;;;;;;;;;5050135;27;98230;-73
2023/10/08 04:15:07;;;;;;;11.68;3.20;;;;;;;;;;5062393;27;99646;-71
2023/10/08 04:17:43;;;;;;;4.93;3.40;;;;;;;;;;5070229;27;98234;-70
2023/10/08 04:23:00;;;;;;;5.88;2.83;;;;;;;;;;5052374;27;100369;-71
2023/10/08 04:25:27;;;;;;;9.48;3.08;;;;;;;;;;5052219;27;100073;-70
2023/10/08 04:27:58;;;;;;;12.18;2.97;;;;;;;;;;5056608;27;99724;-70
2023/10/08 04:30:35;;;;;;;10.52;2.95;;;;;;;;;;5053737;27;98320;-71
2023/10/08 04:33:07;;;;;;;6.38;2.78;;;;;;;;;;5050530;27;98718;-71
2023/10/08 04:35:44;;;;;;;9.98;3.05;;;;;;;;;;5051475;27;98807;-72
2023/10/08 04:38:11;;;;;;;15.55;3.08;;;;;;;;;;5064502;27;98338;-71
2023/10/08 04:40:47;;;;;;;11.48;3.22;;;;;;;;;;5069324;27;98979;-71
2023/10/08 04:43:15;;;;;;;12.77;3.00;;;;;;;;;;5061923;27;98199;-70
2023/10/08 04:45:43;;;;;;;12.52;3.67;;;;;;;;;;5068276;27;99375;-72
2023/10/08 04:48:14;;;;;;;16.35;3.28;;;;;;;;;;5086272;27;99041;-71
2023/10/08 04:50:44;;;;;;;11.77;4.20;;;;;;;;;;5064075;27;98994;-71
2023/10/08 04:53:11;;;;;;;6.35;3.20;;;;;;;;;;5070233;27;98515;-70
2023/10/08 04:55:46;;;;;;;19.02;3.72;;;;;;;;;;5069753;27;98938;-71
2023/10/08 04:58:21;;;;;;;7.28;2.92;;;;;;;;;;5048976;27;98387;-71
2023/10/08 05:00:53;;;;;;;10.73;4.00;;;;;;;;;;5056048;27;98471;-71
2023/10/08 05:03:22;;;;;;;9.18;2.60;;;;;;;;;;5051742;27;98296;-70
2023/10/08 05:06:07;;;;;;;24.85;3.78;;;;;;;;;;5068652;27;99860;-70
2023/10/08 05:08:47;;;;;;;13.43;3.92;;;;;;;;;;5062002;27;99053;-71
2023/10/08 05:11:25;;;;;;;10.82;4.05;;;;;;;;;;5061362;27;99489;-71
2023/10/08 05:14:16;;;;;;;15.48;4.25;;;;;;;;;;5054895;27;99461;-70
2023/10/08 05:17:00;;;;;;;11.55;3.22;;;;;;;;;;5055757;27;99730;-70
2023/10/08 05:33:40;;;;;;;7.00;3.60;;;;;;;;;;5018975;27;99531;-71
2023/10/08 05:36:28;;;;;;;9.45;3.75;;;;;;;;;;5019725;27;99484;-70
2023/10/08 05:39:16;;;;;;;5.35;2.15;;;;;;;;;;5040662;27;98886;-70
2023/10/08 05:41:51;;;;;;;4.82;3.10;;;;;;;;;;5058088;27;98311;-71
2023/10/08 05:49:38;;;;;;;8.05;2.55;;;;;;;;;;5059218;27;100190;-69
2023/10/08 06:13:09;;;;;;;2.13;1.83;;;;;;;;;;5060055;27;99082;-70
2023/10/08 06:15:48;;;;;;;10.20;2.00;;;;;;;;;;5051674;27;100587;-71
2023/10/08 06:18:17;;;;;;;4.75;1.63;;;;;;;;;;5060283;27;100262;-71
2023/10/08 06:20:45;;;;;;;3.17;1.92;;;;;;;;;;5058523;27;98899;-71
2023/10/08 06:23:17;;;;;;;3.88;1.50;;;;;;;;;;5057628;27;98642;-70
2023/10/08 06:25:47;;;;;;;6.75;1.75;;;;;;;;;;5051569;27;99574;-70
2023/10/08 06:28:15;;;;;;;4.85;1.38;;;;;;;;;;5056181;27;100196;-71
2023/10/08 06:30:42;;;;;;;4.18;1.70;;;;;;;;;;5055744;27;98483;-69
2023/10/08 06:33:13;;;;;;;4.53;1.08;;;;;;;;;;5057341;27;99965;-71
2023/10/08 06:35:44;;;;;;;3.40;1.10;;;;;;;;;;5062974;27;100032;-72
2023/10/08 06:38:11;;;;;;;3.13;1.27;;;;;;;;;;5069240;27;99371;-70
2023/10/08 06:46:03;;;;;;;3.42;1.50;;;;;;;;;;5061922;27;99047;-70
2023/10/08 06:48:30;;;;;;;1.77;1.30;;;;;;;;;;5058225;27;98943;-71
2023/10/08 06:50:56;;;;;;;2.88;1.60;;;;;;;;;;5047731;27;98476;-71
2023/10/08 06:53:24;;;;;;;1.20;1.20;;;;;;;;;;5066351;27;99615;-71
2023/10/08 06:55:56;;;;;;;2.97;1.23;;;;;;;;;;5089943;27;99216;-71
2023/10/08 06:58:24;;;;;;;2.53;1.35;;;;;;;;;;5087603;27;98889;-71
2023/10/08 07:00:51;;;;;;;2.83;1.30;;;;;;;;;;5088557;27;99064;-71
2023/10/08 07:03:18;;;;;;;1.10;1.10;;;;;;;;;;5081052;27;99222;-73
2023/10/08 07:05:54;;;;;;;1.98;1.25;;;;;;;;;;5069933;27;98496;-71
2023/10/08 07:08:23;;;;;;;5.82;1.70;;;;;;;;;;5057410;27;99395;-72
2023/10/08 07:10:53;;;;;;;1.67;1.40;;;;;;;;;;5060392;27;98764;-71
2023/10/08 07:13:22;;;;;;;3.88;1.58;;;;;;;;;;5055282;27;99622;-71
2023/10/08 07:15:50;;;;;;;1.50;1.40;;;;;;;;;;5058284;27;100451;-71
2023/10/08 07:18:24;;;;;;;1.40;1.40;;;;;;;;;;5057406;27;98217;-71
2023/10/08 07:20:56;;;;;;;1.80;1.42;;;;;;;;;;5049643;27;99165;-71
2023/10/08 07:23:27;;;;;;;1.35;1.25;;;;;;;;;;5052011;27;98349;-70
2023/10/08 07:26:13;;;;;;;1.88;1.77;;;;;;;;;;5052909;27;99524;-70
2023/10/08 07:28:40;;;;;;;2.53;1.40;;;;;;;;;;5050822;27;99507;-71
2023/10/08 07:31:16;;;;;;;1.67;1.58;;;;;;;;;;5050813;27;98331;-70
2023/10/08 07:33:46;;;;;;;1.75;1.65;;;;;;;;;;5046548;27;99598;-71
2023/10/08 07:36:14;;;;;;;1.88;1.75;;;;;;;;;;5052712;27;103506;-70
2023/10/08 07:38:42;;;;;;;4.00;1.55;;;;;;;;;;5049360;27;98300;-70
2023/10/08 07:41:12;;;;;;;5.50;1.83;;;;;;;;;;5052047;27;100191;-69
2023/10/08 07:43:39;;;;;;;2.58;1.90;;;;;;;;;;5048102;27;100103;-70
2023/10/08 07:46:05;;;;;;;1.98;1.88;;;;;;;;;;5045515;27;98799;-70
2023/10/08 07:48:32;;;;;;;2.10;2.00;;;;;;;;;;5044887;27;100496;-71
2023/10/08 07:50:58;;;;;;;4.22;1.70;;;;;;;;;;5045796;27;102237;-71
2023/10/08 07:53:37;;;;;;;1.42;1.40;;;;;;;;;;5047677;27;99753;-71
2023/10/08 07:56:06;;;;;;;1.90;1.80;;;;;;;;;;5047135;27;98867;-71
2023/10/08 07:58:42;;;;;;;4.68;1.63;;;;;;;;;;5052969;27;100190;-71
2023/10/08 08:01:09;;;;;;;1.55;1.45;;;;;;;;;;5048869;27;98421;-70
2023/10/08 08:03:36;;;;;;;2.00;1.90;;;;;;;;;;5051062;27;100000;-71
2023/10/08 08:06:05;;;;;;;1.95;1.85;;;;;;;;;;5048560;27;99334;-71
2023/10/08 08:08:33;;;;;;;2.72;2.53;;;;;;;;;;5065864;27;99247;-71
2023/10/08 08:11:05;;;;;;;2.33;1.95;;;;;;;;;;5066904;27;98323;-71
2023/10/08 08:13:33;;;;;;;4.60;1.90;;;;;;;;;;5060920;27;99504;-73
2023/10/08 08:16:09;;;;;;;1.85;1.75;;;;;;;;;;5047377;27;99847;-71
2023/10/08 08:18:37;;;;;;;1.55;1.45;;;;;;;;;;5057339;27;98783;-72
2023/10/08 08:21:13;;;;;;;2.17;1.70;;;;;;;;;;5051580;27;100337;-70
2023/10/08 08:23:41;;;;;;;2.95;1.80;;;;;;;;;;5062507;27;98957;-71
2023/10/08 08:26:29;;;;;;;3.38;2.15;;;;;;;;;;5073596;27;99004;-72
2023/10/08 08:28:55;;;;;;;1.75;1.65;;;;;;;;;;5069636;27;99680;-72
2023/10/08 08:31:21;;;;;;;2.65;2.42;;;;;;;;;;5069840;27;98689;-71
2023/10/08 08:33:56;;;;;;;2.05;1.95;;;;;;;;;;5070455;27;98549;-72
2023/10/08 08:36:23;;;;;;;5.28;1.88;;;;;;;;;;5067388;27;99074;-71
2023/10/08 08:38:50;;;;;;;2.78;2.20;;;;;;;;;;5050375;27;98270;-72
2023/10/08 08:41:20;;;;;;;3.10;1.50;;;;;;;;;;5049839;27;98561;-72
2023/10/08 08:43:48;;;;;;;3.75;1.70;;;;;;;;;;5049038;27;98947;-70
2023/10/08 08:46:15;;;;;;;1.83;1.65;;;;;;;;;;5049611;27;98450;-71
2023/10/08 08:48:44;;;;;;;2.50;1.70;;;;;;;;;;5053206;27;98726;-73
2023/10/08 08:51:13;;;;;;;1.97;1.60;;;;;;;;;;5049551;27;98248;-73
2023/10/08 08:53:40;;;;;;;1.75;1.33;;;;;;;;;;5049552;27;98525;-73
2023/10/08 08:56:12;;;;;;;1.88;1.70;;;;;;;;;;5048715;27;99073;-73
2023/10/08 08:58:39;;;;;;;1.60;1.50;;;;;;;;;;5049690;27;98257;-73
2023/10/08 09:01:07;;;;;;;3.22;1.48;;;;;;;;;;5049910;27;98711;-74
2023/10/08 09:03:34;;;;;;;2.38;1.73;;;;;;;;;;5048459;27;99130;-73
2023/10/08 09:06:01;;;;;;;1.70;1.38;;;;;;;;;;5049923;27;99264;-73
2023/10/08 09:08:28;;;;;;;1.30;1.30;;;;;;;;;;5052553;27;99253;-71
2023/10/08 09:11:00;;;;;;;2.72;1.60;;;;;;;;;;5049244;27;98333;-73
2023/10/08 09:13:27;;;;;;;3.15;1.83;;;;;;;;;;5049497;27;98523;-74
2023/10/08 09:15:57;;;;;;;1.83;1.60;;;;;;;;;;5050208;27;99033;-74
2023/10/08 09:18:27;;;;;;;2.30;1.67;;;;;;;;;;5052239;27;98303;-73
2023/10/08 09:20:55;;;;;;;2.55;1.50;;;;;;;;;;5069082;27;99630;-71
2023/10/08 09:23:25;;;;;;;1.98;1.35;;;;;;;;;;5069424;27;100245;-72
2023/10/08 09:26:02;;;;;;;3.92;1.98;;;;;;;;;;5069428;27;98263;-72
2023/10/08 09:28:30;;;;;;;1.55;1.42;;;;;;;;;;5069578;27;99060;-72
2023/10/08 09:30:58;;;;;;;2.40;1.83;;;;;;;;;;5063414;27;99865;-73
2023/10/08 09:33:25;;;;;;;2.58;1.75;;;;;;;;;;5057661;27;99567;-72
2023/10/08 09:35:55;;;;;;;2.25;1.75;;;;;;;;;;5049926;27;99859;-72
2023/10/08 09:38:23;;;;;;;8.82;1.90;;;;;;;;;;5048666;27;98078;-73
2023/10/08 09:40:52;;;;;;;2.35;1.88;;;;;;;;;;5050241;27;98439;-72
2023/10/08 09:43:19;;;;;;;2.17;2.05;;;;;;;;;;5069372;27;99114;-72
2023/10/08 09:45:53;;;;;;;4.53;1.95;;;;;;;;;;5068286;27;98772;-72
2023/10/08 09:48:21;;;;;;;4.05;1.85;;;;;;;;;;5067461;27;98769;-72
2023/10/08 09:50:51;;;;;;;1.80;1.70;;;;;;;;;;5049364;27;99204;-72
2023/10/08 09:53:24;;;;;;;2.97;2.25;;;;;;;;;;5052489;27;98241;-72
2023/10/08 09:55:54;;;;;;;1.65;1.55;;;;;;;;;;5048883;27;100089;-72
2023/10/08 09:58:22;;;;;;;3.22;1.98;;;;;;;;;;5048378;27;98244;-71
2023/10/08 10:00:49;;;;;;;2.40;2.20;;;;;;;;;;5048472;27;98848;-73
2023/10/08 10:03:18;;;;;;;2.28;2.08;;;;;;;;;;5057323;27;99906;-72
2023/10/08 10:05:48;;;;;;;7.85;2.17;;;;;;;;;;5069076;27;98169;-71
2023/10/08 10:08:15;;;;;;;3.50;2.13;;;;;;;;;;5068288;27;98277;-71
2023/10/08 10:10:43;;;;;;;6.70;2.20;;;;;;;;;;5068600;27;99538;-72
2023/10/08 10:13:10;;;;;;;1.80;1.65;;;;;;;;;;5088737;27;98227;-71
2023/10/08 10:15:37;;;;;;;1.83;1.73;;;;;;;;;;5092461;27;98597;-72
2023/10/08 10:18:14;;;;;;;1.88;1.77;;;;;;;;;;5088938;27;98244;-71
2023/10/08 10:20:45;;;;;;;3.65;2.25;;;;;;;;;;5088833;27;98609;-73
2023/10/08 10:23:32;;;;;;;3.20;2.10;;;;;;;;;;5088994;27;98792;-73
2023/10/08 10:25:59;;;;;;;2.13;1.92;;;;;;;;;;5089422;27;98247;-72
2023/10/08 10:28:25;;;;;;;5.15;2.08;;;;;;;;;;5088748;27;99663;-72
2023/10/08 10:30:52;;;;;;;4.35;2.20;;;;;;;;;;5089180;27;99764;-72
2023/10/08 10:33:19;;;;;;;2.42;2.13;;;;;;;;;;5088834;27;98281;-72
2023/10/08 10:35:50;;;;;;;3.15;2.08;;;;;;;;;;5087619;27;98704;-72
2023/10/08 10:38:22;;;;;;;2.13;2.03;;;;;;;;;;5080462;27;98904;-71
2023/10/08 10:40:56;;;;;;;2.37;2.27;;;;;;;;;;5068424;27;100081;-72
2023/10/08 10:43:30;;;;;;;3.15;2.00;;;;;;;;;;5067293;27;100835;-71
2023/10/08 10:45:56;;;;;;;1.65;1.55;;;;;;;;;;5068260;27;98729;-72
2023/10/08 10:48:25;;;;;;;2.55;2.17;;;;;;;;;;5067508;27;98754;-73
2023/10/08 10:54:38;;;;;;;2.42;2.15;;;;;;;;;;5068276;27;98274;-71
2023/10/08 10:56:40;;;;;;;3.47;2.70;;;;;;;;;;5061652;27;98821;-71
2023/10/08 10:59:22;;;;;;;3.97;2.30;;;;;;;;;;5068186;27;98981;-72
2023/10/08 11:02:07;;;;;;;8.65;2.55;;;;;;;;;;5070555;27;98052;-72
2023/10/08 11:04:47;;;;;;;3.67;2.38;;;;;;;;;;5067309;27;99022;-72
2023/10/08 11:07:19;;;;;;;3.47;2.35;;;;;;;;;;5067531;27;98387;-72
2023/10/08 11:09:51;;;;;;;2.58;1.95;;;;;;;;;;5067605;27;98855;-72
2023/10/08 11:12:22;;;;;;;2.60;2.40;;;;;;;;;;5068237;27;99007;-73
2023/10/08 11:14:52;;;;;;;2.63;2.37;;;;;;;;;;5063512;27;98168;-72
2023/10/08 11:17:23;;;;;;;2.92;2.70;;;;;;;;;;5045957;27;98728;-73
2023/10/08 11:19:50;;;;;;;2.50;2.30;;;;;;;;;;5047751;27;98584;-74
2023/10/08 11:22:18;;;;;;;2.40;2.05;;;;;;;;;;5050842;27;98233;-72
2023/10/08 11:24:47;;;;;;;2.60;2.30;;;;;;;;;;5046578;27;99199;-72
2023/10/08 11:27:28;;;;;;;2.30;2.20;;;;;;;;;;5046597;27;98280;-72
2023/10/08 11:30:00;;;;;;;2.72;2.53;;;;;;;;;;5047060;27;99471;-72
2023/10/08 11:32:27;;;;;;;3.00;2.83;;;;;;;;;;5046663;27;99258;-72
2023/10/08 11:34:54;;;;;;;8.70;3.22;;;;;;;;;;5047347;27;98280;-72
2023/10/08 11:37:27;;;;;;;3.35;3.10;;;;;;;;;;5046747;27;99815;-73
2023/10/08 11:39:58;;;;;;;4.32;3.08;;;;;;;;;;5046450;27;100265;-72
2023/10/08 11:45:24;;;;;;;4.15;3.42;;;;;;;;;;5049748;27;98815;-71
2023/10/08 11:47:55;;;;;;;6.40;3.63;;;;;;;;;;5057463;27;98579;-72
2023/10/08 11:50:30;;;;;;;3.33;3.00;;;;;;;;;;5067408;27;98678;-72
2023/10/08 11:53:02;;;;;;;5.07;3.03;;;;;;;;;;5059099;27;99829;-72
2023/10/08 11:55:35;;;;;;;3.15;2.95;;;;;;;;;;5047064;27;98237;-72
2023/10/08 11:58:10;;;;;;;3.45;3.15;;;;;;;;;;5046401;27;98528;-72
2023/10/08 12:00:43;;;;;;;4.50;3.10;;;;;;;;;;5055495;27;98995;-73
2023/10/08 12:03:11;;;;;;;7.60;2.90;;;;;;;;;;5066979;27;98200;-72
2023/10/08 12:05:47;;;;;;;2.78;2.65;;;;;;;;;;5048549;27;99784;-73
2023/10/08 12:08:18;;;;;;;2.58;2.47;;;;;;;;;;5059216;27;99920;-73
2023/10/08 12:10:47;;;;;;;2.92;2.72;;;;;;;;;;5047581;27;98696;-73
2023/10/08 12:13:28;;;;;;;4.00;2.65;;;;;;;;;;5045972;27;98871;-71
2023/10/08 12:16:12;;;;;;;2.80;2.50;;;;;;;;;;5045784;27;98343;-73
2023/10/08 12:18:43;;;;;;;2.45;2.28;;;;;;;;;;5046359;27;98617;-72
2023/10/08 12:21:10;;;;;;;2.97;2.60;;;;;;;;;;5046042;27;100042;-72
2023/10/08 12:23:39;;;;;;;3.63;2.58;;;;;;;;;;5046689;27;98274;-72
2023/10/08 12:26:15;;;;;;;6.53;3.00;;;;;;;;;;5046965;27;98697;-72
2023/10/08 12:28:44;;;;;;;3.10;2.63;;;;;;;;;;5045276;27;98990;-72
2023/10/08 12:31:12;;;;;;;4.20;2.78;;;;;;;;;;5069002;27;98692;-72
2023/10/08 12:33:40;;;;;;;2.55;2.33;;;;;;;;;;5068672;27;99196;-72
2023/10/08 12:36:11;;;;;;;5.00;2.53;;;;;;;;;;5047218;27;98826;-72
2023/10/08 12:38:42;;;;;;;3.23;2.40;;;;;;;;;;5045177;27;98799;-73
2023/10/08 12:41:12;;;;;;;3.35;2.25;;;;;;;;;;5049516;27;99288;-73
2023/10/08 12:43:42;;;;;;;3.50;2.40;;;;;;;;;;5070024;27;98251;-72
2023/10/08 12:46:15;;;;;;;4.18;3.25;;;;;;;;;;5053849;27;98682;-73
2023/10/08 12:48:44;;;;;;;2.85;2.03;;;;;;;;;;5051908;27;100088;-72
2023/10/08 12:51:11;;;;;;;2.47;2.38;;;;;;;;;;5057542;27;98220;-71
2023/10/08 12:53:38;;;;;;;2.33;2.13;;;;;;;;;;5050878;27;100158;-71
2023/10/08 12:56:14;;;;;;;6.63;2.50;;;;;;;;;;5065861;27;98938;-71
2023/10/08 12:58:44;;;;;;;3.63;2.58;;;;;;;;;;5066067;27;98511;-71
2023/10/08 13:01:10;;;;;;;3.38;1.98;;;;;;;;;;5076614;27;99902;-71
2023/10/08 13:03:47;;;;;;;2.67;2.17;;;;;;;;;;5066450;27;98299;-71
2023/10/08 13:06:21;;;;;;;3.55;2.10;;;;;;;;;;5053912;27;98538;-71
2023/10/08 13:08:49;;;;;;;3.78;2.63;;;;;;;;;;5055748;27;99082;-71
2023/10/08 13:11:15;;;;;;;7.63;2.58;;;;;;;;;;5053943;27;98798;-71
2023/10/08 13:13:42;;;;;;;3.05;2.00;;;;;;;;;;5054999;27;98746;-71
2023/10/08 13:16:08;;;;;;;2.53;1.80;;;;;;;;;;5054690;27;98144;-71
2023/10/08 13:18:37;;;;;;;2.80;1.88;;;;;;;;;;5048500;27;99147;-71
2023/10/08 13:21:04;;;;;;;3.30;1.70;;;;;;;;;;5056018;27;99057;-72
2023/10/08 13:23:35;;;;;;;4.65;1.50;;;;;;;;;;5051739;27;99077;-72
2023/10/08 13:26:06;;;;;;;2.67;1.60;;;;;;;;;;5051998;27;101664;-71
2023/10/08 13:28:36;;;;;;;1.55;1.40;;;;;;;;;;5049794;27;99096;-72
2023/10/08 13:31:12;;;;;;;2.35;1.10;;;;;;;;;;5049067;27;100528;-72
2023/10/08 13:33:40;;;;;;;2.55;1.10;;;;;;;;;;5051629;27;99914;-72
2023/10/08 13:36:09;;;;;;;2.17;1.00;;;;;;;;;;5060531;27;99920;-71
2023/10/08 13:38:46;;;;;;;2.05;1.30;;;;;;;;;;5052626;27;99642;-71
2023/10/08 13:41:15;;;;;;;1.77;1.30;;;;;;;;;;5059433;27;99809;-72
2023/10/08 13:43:45;;;;;;;2.20;1.42;;;;;;;;;;5052006;27;99389;-72
2023/10/08 13:46:13;;;;;;;2.15;1.42;;;;;;;;;;5047909;27;99833;-72
2023/10/08 13:48:40;;;;;;;1.75;1.65;;;;;;;;;;5048520;27;99146;-72
2023/10/08 13:51:13;;;;;;;3.38;1.67;;;;;;;;;;5049206;27;98346;-72
2023/10/08 13:53:40;;;;;;;3.63;1.90;;;;;;;;;;5049071;27;100071;-72
2023/10/08 13:56:07;;;;;;;5.53;2.15;;;;;;;;;;5048672;27;99162;-72
2023/10/08 13:58:40;;;;;;;5.00;1.98;;;;;;;;;;5050615;27;98266;-72
2023/10/08 14:01:18;;;;;;;2.78;1.83;;;;;;;;;;5048816;27;98914;-73
2023/10/08 14:03:47;;;;;;;3.80;2.13;;;;;;;;;;5049174;27;98671;-71
2023/10/08 14:06:14;;;;;;;5.88;1.90;;;;;;;;;;5054147;27;99749;-73
2023/10/08 14:08:43;;;;;;;5.25;2.10;;;;;;;;;;5069025;27;99832;-72
2023/10/08 14:11:12;;;;;;;2.08;1.88;;;;;;;;;;5069243;27;98310;-72
2023/10/08 14:13:41;;;;;;;3.03;2.00;;;;;;;;;;5068274;27;98701;-72
2023/10/08 14:16:11;;;;;;;4.00;2.08;;;;;;;;;;5068908;27;99267;-72
2023/10/08 14:18:50;;;;;;;3.60;1.83;;;;;;;;;;5069320;27;98272;-72
2023/10/08 14:21:18;;;;;;;6.18;1.95;;;;;;;;;;5071609;27;99277;-72
2023/10/08 14:23:44;;;;;;;7.93;2.28;;;;;;;;;;5068188;27;98271;-72
2023/10/08 14:26:15;;;;;;;5.78;2.03;;;;;;;;;;5068996;27;99588;-72
2023/10/08 14:28:50;;;;;;;4.70;2.25;;;;;;;;;;5068174;27;99133;-72
2023/10/08 14:31:17;;;;;;;3.78;2.20;;;;;;;;;;5068780;27;98125;-72
2023/10/08 14:33:55;;;;;;;3.47;1.92;;;;;;;;;;5055903;27;99466;-72
2023/10/08 14:44:38;;;;;;;5.38;2.60;;;;;;;;;;5051309;27;100239;-72
2023/10/08 14:47:05;;;;;;;3.30;2.33;;;;;;;;;;5049145;27;99185;-72
2023/10/08 14:49:32;;;;;;;10.88;3.80;;;;;;;;;;5048670;27;99243;-72
2023/10/08 14:51:59;;;;;;;6.07;2.80;;;;;;;;;;5064286;27;98262;-72
2023/10/08 14:54:25;;;;;;;4.68;2.58;;;;;;;;;;5069928;27;99624;-72
2023/10/08 14:56:52;;;;;;;4.95;2.80;;;;;;;;;;5070117;27;99341;-72
2023/10/08 14:59:20;;;;;;;3.25;2.45;;;;;;;;;;5070211;27;98298;-72
2023/10/08 15:01:47;;;;;;;2.65;2.03;;;;;;;;;;5067729;27;99523;-73
2023/10/08 15:04:14;;;;;;;4.05;2.38;;;;;;;;;;5067959;27;98983;-72
2023/10/08 15:06:41;;;;;;;5.13;2.47;;;;;;;;;;5072843;27;99260;-71
2023/10/08 15:09:09;;;;;;;4.13;2.50;;;;;;;;;;5067192;27;98940;-72
2023/10/08 15:11:38;;;;;;;3.67;2.40;;;;;;;;;;5068421;27;98238;-72
2023/10/08 15:14:09;;;;;;;4.47;2.53;;;;;;;;;;5067305;27;99826;-72
2023/10/08 15:16:36;;;;;;;5.57;2.42;;;;;;;;;;5067299;27;100346;-72
2023/10/08 15:19:04;;;;;;;3.85;2.40;;;;;;;;;;5068486;27;98314;-72
2023/10/08 15:21:33;;;;;;;6.53;2.38;;;;;;;;;;5068411;27;98651;-72
2023/10/08 15:24:10;;;;;;;6.18;2.95;;;;;;;;;;5076458;27;99259;-72
2023/10/08 15:26:36;;;;;;;2.60;1.95;;;;;;;;;;5091478;27;98805;-71
2023/10/08 15:29:03;;;;;;;3.22;2.00;;;;;;;;;;5088168;27;98887;-72
2023/10/08 15:31:29;;;;;;;4.03;2.03;;;;;;;;;;5087840;27;98218;-72
2023/10/08 15:33:56;;;;;;;3.85;2.25;;;;;;;;;;5088341;27;99133;-72
2023/10/08 15:36:25;;;;;;;2.72;2.08;;;;;;;;;;5087435;27;99042;-73
2023/10/08 15:38:52;;;;;;;3.58;2.47;;;;;;;;;;5082429;27;98225;-71
2023/10/08 15:41:19;;;;;;;2.42;2.22;;;;;;;;;;5067406;27;98190;-73
2023/10/08 15:43:53;;;;;;;10.05;2.90;;;;;;;;;;5067252;27;99375;-72
2023/10/08 15:46:20;;;;;;;5.05;2.63;;;;;;;;;;5067534;27;98231;-73
2023/10/08 15:48:46;;;;;;;6.07;3.00;;;;;;;;;;5070975;27;101803;-73
2023/10/08 15:51:13;;;;;;;2.40;2.20;;;;;;;;;;5066757;27;98284;-73
2023/10/08 15:53:39;;;;;;;2.40;2.20;;;;;;;;;;5067239;27;99423;-72
2023/10/08 15:56:06;;;;;;;6.47;2.13;;;;;;;;;;5067878;27;98974;-72
2023/10/08 15:58:32;;;;;;;10.25;2.08;;;;;;;;;;5066556;27;98272;-72
2023/10/08 16:00:59;;;;;;;2.47;2.22;;;;;;;;;;5086657;27;98748;-72
2023/10/08 16:03:25;;;;;;;2.40;2.15;;;;;;;;;;5086786;27;99422;-72
2023/10/08 16:05:54;;;;;;;3.78;2.10;;;;;;;;;;5087001;27;98421;-72